Time;durP1;ratioP1;P1;durP2;ratioP2;P2;SDS_P1;SDS_P2;PMS_P1;PMS_P2;Temp;Humidity;BMP_temperature;BMP_pressure;BME280_temperature;BME280_humidity;BME280_pressure;Samples;Min_cycle;Max_cycle;Signal;HPM_P1;HPM_P2
2021/08/23 00:01:47;;;;;;;8.95;6.37;;;;;;;18.08;62.86;100912.35;1692893;82;20997;-64
2021/08/23 00:04:14;;;;;;;11.43;6.37;;;;;;;18.05;63.28;100915.33;1693721;82;21579;-66
2021/08/23 00:06:41;;;;;;;12.18;6.65;;;;;;;18.00;63.56;100915.83;1697816;82;21118;-65
2021/08/23 00:09:09;;;;;;;9.48;6.33;;;;;;;17.96;63.73;100917.12;1697555;82;21142;-65
2021/08/23 00:11:35;;;;;;;8.65;6.25;;;;;;;17.91;63.81;100917.27;1747703;79;21047;-65
2021/08/23 00:14:02;;;;;;;9.15;6.62;;;;;;;17.90;63.88;100913.74;1745869;79;21062;-65
2021/08/23 00:16:29;;;;;;;8.85;5.95;;;;;;;17.95;64.02;100921.27;1757654;79;21114;-64
2021/08/23 00:18:57;;;;;;;11.78;6.58;;;;;;;17.98;64.03;100913.80;1747465;79;21020;-65
2021/08/23 00:21:25;;;;;;;9.70;6.28;;;;;;;17.99;64.01;100910.16;1747131;79;21090;-65
2021/08/23 00:23:55;;;;;;;9.65;6.33;;;;;;;17.97;64.17;100916.14;1744798;79;21648;-64
2021/08/23 00:26:22;;;;;;;12.35;7.55;;;;;;;17.92;64.30;100914.45;1746701;81;21083;-64
2021/08/23 00:28:50;;;;;;;11.25;7.53;;;;;;;17.89;64.47;100914.75;1747997;81;21048;-65
2021/08/23 00:31:17;;;;;;;9.23;6.50;;;;;;;17.87;65.05;100913.23;1732683;79;21513;-65
2021/08/23 00:33:43;;;;;;;13.10;6.40;;;;;;;17.81;64.75;100921.33;1749917;79;21087;-66
2021/08/23 00:36:10;;;;;;;8.58;6.05;;;;;;;17.74;65.05;100918.97;1747662;79;21655;-64
2021/08/23 00:38:37;;;;;;;10.72;5.45;;;;;;;17.73;65.15;100922.61;1744731;79;21605;-65
2021/08/23 00:41:04;;;;;;;9.90;5.97;;;;;;;17.77;65.03;100922.62;1743787;79;21047;-65
2021/08/23 00:43:32;;;;;;;8.93;6.30;;;;;;;17.79;65.10;100920.16;1746922;81;21324;-65
2021/08/23 00:46:00;;;;;;;8.23;5.65;;;;;;;17.82;65.22;100922.50;1747166;79;21947;-65
2021/08/23 00:48:28;;;;;;;8.45;5.95;;;;;;;17.81;65.10;100926.66;1745642;79;22547;-64
2021/08/23 00:50:55;;;;;;;10.03;6.40;;;;;;;17.78;64.96;100925.63;1748213;79;21554;-66
2021/08/23 00:53:22;;;;;;;9.58;6.83;;;;;;;17.73;64.84;100927.42;1745722;79;21027;-65
2021/08/23 00:55:50;;;;;;;8.88;6.55;;;;;;;17.68;64.78;100928.89;1745605;81;21517;-66
2021/08/23 00:58:20;;;;;;;9.15;6.17;;;;;;;17.62;64.73;100927.20;1725420;79;22863;-65
2021/08/23 01:00:52;;;;;;;9.40;6.35;;;;;;;17.57;64.73;100930.00;1750620;79;21141;-68
2021/08/23 01:03:29;;;;;;;10.65;6.78;;;;;;;17.53;64.61;100932.10;1755043;79;21021;-67
2021/08/23 01:05:56;;;;;;;9.33;6.62;;;;;;;17.58;64.54;100930.31;1750562;79;21683;-65
2021/08/23 01:08:40;;;;;;;9.75;6.50;;;;;;;17.62;64.39;100927.70;1757728;79;21110;-64
2021/08/23 01:11:12;;;;;;;15.70;7.42;;;;;;;17.62;64.38;100925.04;1755518;79;21089;-65
2021/08/23 01:13:45;;;;;;;11.73;8.03;;;;;;;17.58;64.56;100925.81;1755863;79;21012;-64
2021/08/23 01:16:12;;;;;;;11.12;7.35;;;;;;;17.56;64.67;100923.81;1738116;79;21114;-65
2021/08/23 01:18:40;;;;;;;11.43;7.53;;;;;;;17.56;64.56;100928.31;1756958;79;21121;-66
2021/08/23 01:21:08;;;;;;;10.60;7.22;;;;;;;17.52;64.54;100925.13;1740115;80;21012;-64
2021/08/23 01:23:36;;;;;;;13.30;7.45;;;;;;;17.49;64.48;100922.77;1753287;79;21123;-64
2021/08/23 01:26:02;;;;;;;14.45;7.83;;;;;;;17.45;64.30;100924.91;1747174;79;21554;-64
2021/08/23 01:29:08;;;;;;;12.93;7.53;;;;;;;17.39;64.34;100922.03;1744594;80;21273;-65
2021/08/23 01:31:42;;;;;;;12.68;7.37;;;;;;;17.35;64.42;100919.33;1725793;79;21008;-65
2021/08/23 01:34:09;;;;;;;10.70;6.90;;;;;;;17.36;64.36;100922.34;1752594;79;21572;-65
2021/08/23 01:36:36;;;;;;;13.30;9.05;;;;;;;17.36;64.43;100921.01;1754445;79;21134;-65
2021/08/23 01:39:02;;;;;;;11.93;8.15;;;;;;;17.35;64.62;100925.50;1748758;79;21067;-65
2021/08/23 01:41:29;;;;;;;11.15;8.13;;;;;;;17.35;64.71;100921.98;1743422;79;21757;-65
2021/08/23 01:43:56;;;;;;;12.35;8.33;;;;;;;17.33;64.65;100920.84;1693940;82;21041;-65
2021/08/23 01:46:22;;;;;;;13.18;8.40;;;;;;;17.33;64.57;100921.31;1745621;79;21016;-64
2021/08/23 01:48:50;;;;;;;12.20;8.60;;;;;;;17.31;64.39;100917.98;1758378;79;21968;-65
2021/08/23 01:51:16;;;;;;;16.52;8.95;;;;;;;17.25;64.62;100917.60;1733551;80;21498;-65
2021/08/23 01:53:43;;;;;;;12.55;8.15;;;;;;;17.19;64.85;100918.20;1748123;79;21059;-66
2021/08/23 01:56:09;;;;;;;11.10;8.15;;;;;;;17.17;64.95;100914.05;1741853;79;21103;-65
2021/08/23 01:58:36;;;;;;;9.78;6.90;;;;;;;17.19;64.87;100915.55;1753716;81;21059;-64
2021/08/23 02:01:02;;;;;;;13.15;7.92;;;;;;;17.19;64.87;100915.55;1754846;79;21041;-64
2021/08/23 02:03:28;;;;;;;12.40;8.03;;;;;;;17.17;64.87;100912.21;1741612;80;21515;-66
2021/08/23 02:05:56;;;;;;;11.85;8.45;;;;;;;17.15;65.01;100912.04;1752995;79;21137;-66
2021/08/23 02:08:22;;;;;;;15.25;9.35;;;;;;;17.14;65.14;100918.33;1745245;80;21067;-64
2021/08/23 02:10:49;;;;;;;13.00;8.63;;;;;;;17.14;65.13;100917.00;1743763;79;21732;-65
2021/08/23 02:13:16;;;;;;;11.50;7.47;;;;;;;17.09;65.18;100916.95;1732631;81;21087;-67
2021/08/23 02:15:44;;;;;;;13.35;8.45;;;;;;;17.02;65.36;100927.86;1748369;81;21012;-65
2021/08/23 02:18:10;;;;;;;12.82;8.65;;;;;;;16.95;65.47;100920.66;1751144;81;21028;-65
2021/08/23 02:20:36;;;;;;;13.62;8.85;;;;;;;16.91;65.37;100925.41;1752694;79;21802;-65
2021/08/23 02:23:03;;;;;;;15.20;8.63;;;;;;;16.95;65.16;100920.66;1745059;81;21142;-65
2021/08/23 02:25:29;;;;;;;12.73;8.48;;;;;;;16.94;65.08;100918.98;1749456;81;21959;-66
2021/08/23 02:27:55;;;;;;;14.90;9.20;;;;;;;16.95;65.05;100924.64;1734803;80;21054;-67
2021/08/23 02:30:23;;;;;;;12.95;8.20;;;;;;;16.89;64.92;100922.08;1724776;80;21039;-65
2021/08/23 02:32:49;;;;;;;15.13;9.48;;;;;;;16.82;64.77;100923.14;1760235;79;21023;-65
2021/08/23 02:35:16;;;;;;;16.60;9.23;;;;;;;16.76;64.68;100926.42;1735134;79;21114;-67
2021/08/23 02:37:43;;;;;;;14.25;9.30;;;;;;;16.69;64.71;100928.84;1750444;79;21931;-65
2021/08/23 02:40:11;;;;;;;13.28;8.73;;;;;;;16.62;64.73;100928.25;1745135;79;21027;-65
2021/08/23 02:42:37;;;;;;;12.00;8.83;;;;;;;16.53;64.77;100925.49;1748991;79;21030;-67
2021/08/23 02:45:05;;;;;;;16.17;8.95;;;;;;;16.48;64.92;100922.95;1747865;79;21015;-64
2021/08/23 02:47:35;;;;;;;13.68;8.73;;;;;;;16.49;64.88;100928.12;1737682;80;21086;-64
2021/08/23 02:49:59;;;;;;;11.97;8.58;;;;;;;16.51;64.67;100919.50;1751596;79;21166;-67
2021/08/23 02:52:26;;;;;;;15.48;9.15;;;;;;;16.52;64.57;100922.98;1752664;79;21635;-66
2021/08/23 02:54:52;;;;;;;14.15;8.83;;;;;;;16.49;64.60;100924.13;1755165;79;21103;-65
2021/08/23 02:57:18;;;;;;;12.43;8.60;;;;;;;16.44;64.65;100924.21;1693373;82;21130;-68
2021/08/23 02:59:45;;;;;;;16.55;9.40;;;;;;;16.39;64.64;100923.81;1682444;82;21042;-65
2021/08/23 03:02:11;;;;;;;13.18;9.08;;;;;;;16.33;64.47;100923.92;1739027;80;21909;-65
2021/08/23 03:04:38;;;;;;;13.28;9.20;;;;;;;16.28;64.67;100927.52;1749969;79;21126;-65
2021/08/23 03:07:04;;;;;;;15.08;8.83;;;;;;;16.22;64.98;100930.75;1692524;82;21124;-66
2021/08/23 03:09:30;;;;;;;14.20;9.38;;;;;;;16.19;65.07;100928.37;1745985;81;21970;-65
2021/08/23 03:11:57;;;;;;;15.48;9.30;;;;;;;16.17;65.21;100933.83;1740288;79;21063;-65
2021/08/23 03:14:24;;;;;;;16.25;9.05;;;;;;;16.20;65.27;100934.05;1730752;79;21063;-65
2021/08/23 03:16:50;;;;;;;12.88;8.15;;;;;;;16.29;65.09;100936.67;1729555;81;21701;-66
2021/08/23 03:19:17;;;;;;;13.25;8.80;;;;;;;16.35;64.90;100932.08;1717847;81;21047;-66
2021/08/23 03:21:43;;;;;;;14.43;8.25;;;;;;;16.38;64.89;100934.94;1744005;80;21075;-65
2021/08/23 03:24:11;;;;;;;12.07;8.45;;;;;;;16.35;64.90;100944.02;1744631;81;21059;-66
2021/08/23 03:26:39;;;;;;;15.32;9.88;;;;;;;16.36;64.82;100940.90;1741570;79;21173;-65
2021/08/23 03:29:06;;;;;;;15.30;9.85;;;;;;;16.32;64.67;100940.83;1743001;79;21569;-66
2021/08/23 03:31:33;;;;;;;12.28;8.70;;;;;;;16.29;64.79;100937.14;1743414;81;21083;-65
2021/08/23 03:33:59;;;;;;;13.53;9.13;;;;;;;16.29;64.81;100937.14;1743562;81;21091;-69
2021/08/23 03:36:26;;;;;;;12.47;9.43;;;;;;;16.26;64.95;100936.95;1749109;81;21011;-64
2021/08/23 03:38:52;;;;;;;12.37;8.38;;;;;;;16.27;64.99;100945.75;1745749;79;21113;-65
2021/08/23 03:41:18;;;;;;;14.80;8.65;;;;;;;16.30;65.01;100946.28;1745880;81;20984;-67
2021/08/23 03:43:45;;;;;;;16.00;9.30;;;;;;;16.39;65.03;100945.92;1750170;79;21056;-66
2021/08/23 03:46:11;;;;;;;15.30;8.75;;;;;;;16.45;65.06;100953.78;1759452;79;22401;-64
2021/08/23 03:48:39;;;;;;;16.82;10.45;;;;;;;16.49;64.90;100948.03;1734324;79;21131;-65
2021/08/23 03:51:05;;;;;;;12.28;8.78;;;;;;;16.51;64.86;100946.06;1749554;79;21053;-66
2021/08/23 03:53:32;;;;;;;16.17;10.43;;;;;;;16.52;64.63;100952.20;1731807;81;21066;-68
2021/08/23 03:55:58;;;;;;;14.15;9.35;;;;;;;16.48;64.62;100950.84;1750717;79;21062;-65
2021/08/23 03:58:26;;;;;;;18.30;10.32;;;;;;;16.42;64.67;100956.73;1751186;79;21525;-66
2021/08/23 04:00:53;;;;;;;13.38;8.75;;;;;;;16.33;64.67;100955.80;1744688;79;21103;-65
2021/08/23 04:03:19;;;;;;;15.83;10.18;;;;;;;16.27;64.77;100956.37;1726872;81;22262;-64
2021/08/23 04:05:45;;;;;;;14.45;8.68;;;;;;;16.30;64.71;100960.06;1750340;79;21027;-64
2021/08/23 04:08:12;;;;;;;13.62;9.18;;;;;;;16.37;64.35;100961.14;1744185;79;21429;-67
2021/08/23 04:10:38;;;;;;;12.40;9.38;;;;;;;16.41;64.28;100957.23;1746217;79;21357;-63
2021/08/23 04:13:05;;;;;;;13.25;9.88;;;;;;;16.43;63.97;100957.91;1744953;79;21063;-65
2021/08/23 04:15:31;;;;;;;16.05;9.03;;;;;;;16.43;63.66;100957.09;1727895;81;21055;-64
2021/08/23 04:17:59;;;;;;;15.65;10.03;;;;;;;16.44;63.60;100958.73;1746678;79;20976;-64
2021/08/23 04:20:26;;;;;;;18.05;9.53;;;;;;;16.45;63.50;100955.94;1755785;79;21082;-64
2021/08/23 04:22:52;;;;;;;13.65;9.43;;;;;;;16.45;63.50;100951.95;1748030;81;21075;-65
2021/08/23 04:25:18;;;;;;;13.58;8.98;;;;;;;16.47;63.63;100947.32;1741230;80;21642;-65
2021/08/23 04:27:45;;;;;;;13.28;9.63;;;;;;;16.52;63.77;100954.86;1749663;79;22253;-62
2021/08/23 04:30:12;;;;;;;16.55;10.40;;;;;;;16.61;63.91;100961.09;1735827;80;21098;-63
2021/08/23 04:32:39;;;;;;;14.40;9.58;;;;;;;16.75;63.93;100955.80;1745317;79;21428;-64
2021/08/23 04:35:06;;;;;;;14.53;9.78;;;;;;;16.87;63.65;100955.95;1745874;79;21044;-63
2021/08/23 04:37:33;;;;;;;15.48;9.35;;;;;;;16.96;63.45;100958.20;1750779;80;21095;-63
2021/08/23 04:39:59;;;;;;;13.68;9.00;;;;;;;17.03;63.06;100953.94;1734410;81;22075;-64
2021/08/23 04:42:28;;;;;;;16.02;9.68;;;;;;;17.10;62.64;100957.69;1748281;81;21502;-66
2021/08/23 04:44:54;;;;;;;15.32;9.45;;;;;;;17.13;62.58;100949.41;1744452;79;21098;-64
2021/08/23 04:47:21;;;;;;;12.65;9.33;;;;;;;17.16;62.49;100953.08;1738251;80;21640;-63
2021/08/23 04:49:47;;;;;;;13.68;9.38;;;;;;;17.21;62.64;100956.61;1750833;79;21043;-64
2021/08/23 04:52:14;;;;;;;13.13;9.05;;;;;;;17.27;62.56;100949.37;1759602;80;23195;-65
2021/08/23 04:54:40;;;;;;;20.17;10.35;;;;;;;17.34;62.43;100953.58;1751168;79;21020;-64
2021/08/23 04:57:07;;;;;;;14.87;9.18;;;;;;;17.40;62.16;100952.47;1750023;79;20976;-65
2021/08/23 04:59:33;;;;;;;14.63;10.10;;;;;;;17.50;61.76;100951.53;1747421;79;21633;-63
2021/08/23 05:02:00;;;;;;;15.80;9.43;;;;;;;17.60;61.46;100952.28;1730556;80;21066;-64
2021/08/23 05:04:26;;;;;;;13.80;8.65;;;;;;;17.74;61.02;100957.55;1750797;79;21604;-63
2021/08/23 05:06:52;;;;;;;16.85;9.38;;;;;;;17.79;60.87;100960.08;1747785;81;21027;-61
2021/08/23 05:09:19;;;;;;;13.78;9.38;;;;;;;17.83;60.23;100953.44;1748080;79;21585;-62
2021/08/23 05:11:46;;;;;;;18.10;11.60;;;;;;;17.86;60.22;100946.98;1738108;81;21043;-64
2021/08/23 05:14:14;;;;;;;17.75;9.13;;;;;;;17.87;60.53;100958.02;1731113;80;21031;-64
2021/08/23 05:16:40;;;;;;;13.78;8.33;;;;;;;17.90;60.35;100952.85;1734054;80;21071;-63
2021/08/23 05:19:07;;;;;;;11.70;7.95;;;;;;;17.91;60.18;100957.20;1758735;79;21087;-62
2021/08/23 05:21:33;;;;;;;13.20;8.73;;;;;;;17.93;60.20;100951.21;1738851;80;21007;-63
2021/08/23 05:24:01;;;;;;;13.93;9.03;;;;;;;17.92;60.42;100950.39;1757321;79;21109;-66
2021/08/23 05:26:27;;;;;;;12.60;8.78;;;;;;;17.97;60.66;100946.76;1756601;79;21046;-64
2021/08/23 05:28:53;;;;;;;12.13;8.35;;;;;;;18.03;60.25;100942.62;1758850;79;21125;-63
2021/08/23 05:31:21;;;;;;;20.30;8.10;;;;;;;18.11;60.21;100945.84;1736848;80;22613;-61
2021/08/23 05:33:49;;;;;;;14.87;8.53;;;;;;;18.21;60.18;100946.55;1758750;80;21094;-63
2021/08/23 05:36:16;;;;;;;12.98;8.33;;;;;;;18.32;59.36;100944.09;1756363;79;22347;-63
2021/08/23 05:38:42;;;;;;;13.80;8.85;;;;;;;18.42;59.59;100949.30;1756299;79;21039;-62
2021/08/23 05:41:09;;;;;;;13.13;9.15;;;;;;;18.48;59.66;100946.00;1751569;80;21776;-63
2021/08/23 05:43:35;;;;;;;12.03;8.33;;;;;;;18.59;59.77;100945.69;1758908;79;21085;-66
2021/08/23 05:46:01;;;;;;;13.05;8.60;;;;;;;18.72;59.60;100939.39;1753495;80;21038;-62
2021/08/23 05:48:30;;;;;;;12.68;8.08;;;;;;;18.82;59.03;100941.92;1762819;80;21798;-62
2021/08/23 05:50:56;;;;;;;12.90;8.43;;;;;;;18.84;59.01;100937.29;1760013;80;21056;-63
2021/08/23 05:53:22;;;;;;;12.95;8.13;;;;;;;18.90;58.79;100941.98;1751728;79;21500;-63
2021/08/23 05:55:49;;;;;;;13.35;7.87;;;;;;;19.00;58.99;100943.16;1757151;79;21302;-66
2021/08/23 05:58:15;;;;;;;11.10;7.83;;;;;;;19.07;58.61;100944.67;1754371;79;21042;-67
2021/08/23 06:00:41;;;;;;;12.60;8.10;;;;;;;19.13;58.38;100945.33;1741277;80;21545;-68
2021/08/23 06:03:07;;;;;;;11.18;8.63;;;;;;;19.22;58.33;100943.53;1730052;79;21079;-68
2021/08/23 06:05:36;;;;;;;11.63;8.90;;;;;;;19.29;58.00;100940.52;1739429;80;21521;-64
2021/08/23 06:08:06;;;;;;;10.93;7.37;;;;;;;19.37;58.20;100949.86;1741549;80;21043;-64
2021/08/23 06:10:33;;;;;;;11.63;7.33;;;;;;;19.51;57.77;100941.68;1739992;79;22217;-62
2021/08/23 06:13:00;;;;;;;13.18;7.65;;;;;;;19.70;57.27;100951.16;1739271;80;21125;-66
2021/08/23 06:15:26;;;;;;;12.07;7.15;;;;;;;19.86;57.37;100947.68;1748280;79;21070;-68
2021/08/23 06:17:52;;;;;;;12.55;7.92;;;;;;;20.00;57.07;100944.80;1746345;79;21124;-66
2021/08/23 06:20:19;;;;;;;11.85;7.28;;;;;;;20.09;56.82;100949.13;1746774;79;21039;-64
2021/08/23 06:22:46;;;;;;;10.98;7.00;;;;;;;20.19;56.19;100940.89;1742691;81;21039;-65
2021/08/23 06:25:13;;;;;;;9.73;6.72;;;;;;;20.28;55.71;100939.88;1746336;79;21021;-64
2021/08/23 06:27:39;;;;;;;11.70;7.25;;;;;;;20.37;55.92;100939.33;1747326;79;21846;-68
2021/08/23 06:30:08;;;;;;;9.85;6.33;;;;;;;20.48;56.20;100939.47;1743403;79;21281;-64
2021/08/23 06:32:35;;;;;;;10.53;7.03;;;;;;;20.58;55.75;100938.23;1742999;79;21117;-67
2021/08/23 06:35:03;;;;;;;10.25;7.20;;;;;;;20.67;54.89;100935.55;1746339;79;21110;-67
2021/08/23 06:37:31;;;;;;;10.48;6.67;;;;;;;20.72;54.71;100938.53;1749612;79;22229;-67
2021/08/23 06:40:07;;;;;;;12.90;6.92;;;;;;;20.77;55.09;100928.95;1747020;79;21086;-66
2021/08/23 06:42:26;;;;;;;13.58;7.47;;;;;;;20.86;55.46;100924.90;1746370;79;21166;-67
2021/08/23 06:44:52;;;;;;;12.23;7.05;;;;;;;20.93;54.76;100917.82;1746585;79;21015;-66
2021/08/23 06:47:19;;;;;;;12.07;7.72;;;;;;;21.02;54.17;100913.27;1748720;79;21968;-69
2021/08/23 06:49:46;;;;;;;12.60;7.05;;;;;;;21.08;54.97;100916.06;1751565;79;21004;-67
2021/08/23 06:52:12;;;;;;;13.32;7.22;;;;;;;21.16;55.81;100919.16;1747773;79;20999;-68
2021/08/23 06:54:39;;;;;;;13.48;7.58;;;;;;;21.24;56.22;100911.59;1744088;79;21116;-66
2021/08/23 06:57:06;;;;;;;13.45;7.80;;;;;;;21.37;55.99;100911.81;1745874;79;21078;-67
2021/08/23 06:59:33;;;;;;;10.90;7.58;;;;;;;21.48;55.83;100913.23;1731749;80;21063;-70
2021/08/23 07:01:59;;;;;;;13.93;8.05;;;;;;;21.58;55.96;100911.65;1750347;79;21325;-67
2021/08/23 07:04:26;;;;;;;11.73;7.33;;;;;;;21.67;56.79;100911.39;1737792;79;21040;-71
2021/08/23 07:06:52;;;;;;;11.28;7.62;;;;;;;21.74;56.49;100903.45;1740687;79;21872;-69
2021/08/23 07:09:20;;;;;;;12.85;8.60;;;;;;;21.79;56.77;100910.42;1750696;79;21019;-70
2021/08/23 07:11:47;;;;;;;11.50;8.28;;;;;;;21.87;57.22;100913.02;1754561;79;21023;-69
2021/08/23 07:14:14;;;;;;;10.43;7.58;;;;;;;21.96;57.42;100912.42;1755340;79;22419;-67
2021/08/23 07:16:41;;;;;;;14.28;8.58;;;;;;;22.02;56.91;100911.69;1760634;79;21011;-66
2021/08/23 07:19:08;;;;;;;11.97;7.58;;;;;;;22.07;56.58;100914.64;1700122;82;21105;-67
2021/08/23 07:21:35;;;;;;;12.23;8.10;;;;;;;22.14;56.71;100912.53;1691153;84;21611;-66
2021/08/23 07:24:04;;;;;;;12.15;7.28;;;;;;;22.22;56.07;100912.44;1717536;81;21018;-68
2021/08/23 07:26:31;;;;;;;10.55;6.60;;;;;;;22.29;55.58;100913.38;1755156;79;20912;-69
2021/08/23 07:28:57;;;;;;;12.18;7.20;;;;;;;22.35;54.67;100919.86;1752709;79;20955;-67
2021/08/23 07:31:24;;;;;;;11.12;7.60;;;;;;;22.39;53.98;100915.77;1749761;79;21691;-70
2021/08/23 07:33:52;;;;;;;11.93;7.22;;;;;;;22.40;53.58;100917.45;1745962;79;21091;-67
2021/08/23 07:36:20;;;;;;;10.45;6.78;;;;;;;22.42;53.49;100910.86;1747126;79;21094;-67
2021/08/23 07:38:47;;;;;;;10.78;6.72;;;;;;;22.50;52.90;100914.47;1751109;79;21049;-68
2021/08/23 07:41:16;;;;;;;10.32;6.65;;;;;;;22.57;54.22;100919.39;1753578;79;21031;-68
2021/08/23 07:43:44;;;;;;;9.60;5.40;;;;;;;22.67;53.53;100918.58;1757367;79;21202;-68
2021/08/23 07:46:11;;;;;;;8.78;5.40;;;;;;;22.75;51.99;100924.35;1757876;79;21533;-67
2021/08/23 07:48:37;;;;;;;11.08;6.85;;;;;;;22.82;50.71;100922.56;1762663;79;21042;-69
2021/08/23 07:51:03;;;;;;;10.10;6.28;;;;;;;22.89;51.28;100915.92;1731124;79;21070;-67
2021/08/23 07:53:31;;;;;;;10.10;6.15;;;;;;;22.98;52.14;100918.78;1758204;79;21122;-68
2021/08/23 07:55:58;;;;;;;8.85;5.72;;;;;;;23.07;51.70;100920.36;1753234;79;21117;-67
2021/08/23 07:58:24;;;;;;;13.20;6.10;;;;;;;23.10;50.71;100925.35;1729693;79;21036;-70
2021/08/23 08:00:51;;;;;;;12.68;6.80;;;;;;;23.14;51.03;100929.82;1758161;79;21054;-67
2021/08/23 08:03:17;;;;;;;7.95;5.40;;;;;;;23.22;51.64;100927.50;1755458;79;21063;-65
2021/08/23 08:05:44;;;;;;;8.88;5.25;;;;;;;23.32;49.62;100933.39;1731598;80;21055;-67
2021/08/23 08:08:12;;;;;;;6.90;3.87;;;;;;;23.37;47.96;100934.47;1750407;79;21163;-70
2021/08/23 08:10:39;;;;;;;6.92;3.62;;;;;;;23.45;46.53;100922.77;1752688;79;21102;-71
2021/08/23 08:13:07;;;;;;;7.15;3.72;;;;;;;23.57;44.37;100925.75;1753527;79;21018;-69
2021/08/23 08:15:34;;;;;;;7.17;3.52;;;;;;;23.74;44.13;100926.27;1744495;79;21103;-70
2021/08/23 08:18:00;;;;;;;5.75;3.47;;;;;;;23.89;43.05;100916.80;1721487;79;21114;-68
2021/08/23 08:20:26;;;;;;;5.17;2.98;;;;;;;24.05;41.89;100915.63;1748498;79;21108;-72
2021/08/23 08:22:53;;;;;;;16.87;4.78;;;;;;;24.12;42.25;100915.13;1746080;79;21129;-70
2021/08/23 08:25:19;;;;;;;6.47;3.15;;;;;;;24.22;41.84;100916.12;1746404;79;21087;-70
2021/08/23 08:29:20;;;;;;;4.90;2.50;;;;;;;24.47;41.59;100920.46;1763965;79;22848;-59
2021/08/23 08:31:47;;;;;;;7.85;4.83;;;;;;;24.56;39.48;100920.64;1743407;80;21597;-59
2021/08/23 08:34:15;;;;;;;5.97;3.30;;;;;;;24.71;40.34;100924.48;1743828;80;21124;-65
2021/08/23 08:36:42;;;;;;;5.37;2.58;;;;;;;24.79;39.72;100927.52;1719927;81;21115;-71
2021/08/23 08:39:09;;;;;;;6.95;3.20;;;;;;;24.81;38.92;100926.79;1744275;80;21328;-70
2021/08/23 08:41:36;;;;;;;7.47;4.72;;;;;;;24.81;38.34;100930.33;1745150;80;21082;-71
2021/08/23 08:44:06;;;;;;;6.95;3.50;;;;;;;24.76;38.93;100932.78;1744146;80;21388;-59
2021/08/23 08:46:35;;;;;;;7.37;3.30;;;;;;;24.72;39.36;100940.13;1741213;80;21141;-59
2021/08/23 08:49:04;;;;;;;6.28;3.35;;;;;;;24.64;39.18;100940.61;1735315;80;21128;-58
2021/08/23 08:51:36;;;;;;;6.60;4.20;;;;;;;24.57;39.37;100930.88;1738095;80;21481;-58
2021/08/23 08:54:04;;;;;;;7.40;4.08;;;;;;;24.50;39.92;100924.09;1738122;80;21132;-59
2021/08/23 08:56:32;;;;;;;7.72;4.42;;;;;;;24.52;39.92;100931.44;1737201;80;21117;-56
2021/08/23 08:58:59;;;;;;;11.05;4.83;;;;;;;24.54;40.04;100934.75;1741945;80;21090;-57
2021/08/23 09:01:26;;;;;;;7.45;4.22;;;;;;;24.53;39.61;100929.08;1742033;80;21059;-59
2021/08/23 09:03:55;;;;;;;6.55;3.98;;;;;;;24.56;40.01;100923.33;1738223;81;21552;-59
2021/08/23 09:06:22;;;;;;;8.68;4.17;;;;;;;24.63;39.74;100926.05;1671676;81;21139;-60
2021/08/23 09:08:48;;;;;;;7.45;3.62;;;;;;;24.70;39.44;100924.72;1733052;80;21098;-55
2021/08/23 09:11:19;;;;;;;5.55;3.02;;;;;;;24.75;38.12;100927.10;1713163;81;21047;-59
2021/08/23 09:14:02;;;;;;;6.25;3.08;;;;;;;24.80;38.79;100927.84;1713352;81;21067;-59
2021/08/23 09:16:31;;;;;;;6.28;3.33;;;;;;;24.81;38.69;100916.88;1741900;80;21114;-59
2021/08/23 09:18:57;;;;;;;7.58;3.70;;;;;;;24.83;38.27;100910.77;1739086;80;21093;-60
2021/08/23 09:21:35;;;;;;;5.33;3.42;;;;;;;24.90;37.67;100908.58;1738011;80;21153;-60
2021/08/23 09:24:05;;;;;;;6.37;3.30;;;;;;;24.95;37.41;100901.56;1740134;80;21124;-58
2021/08/23 09:26:34;;;;;;;7.20;3.12;;;;;;;25.05;38.44;100901.17;1720779;81;21082;-59
2021/08/23 09:29:04;;;;;;;6.83;3.45;;;;;;;25.17;36.45;100900.03;1727433;81;21137;-60
2021/08/23 09:31:37;;;;;;;5.87;3.08;;;;;;;25.29;36.37;100898.92;1698320;81;21699;-61
2021/08/23 09:34:07;;;;;;;8.50;3.75;;;;;;;25.42;36.21;100894.87;1724071;81;22323;-60
2021/08/23 09:36:35;;;;;;;7.03;3.40;;;;;;;25.52;35.94;100897.98;1721078;81;21102;-60
2021/08/23 09:39:15;;;;;;;5.47;3.02;;;;;;;25.54;36.55;100901.81;1719515;81;21082;-61
2021/08/23 09:41:43;;;;;;;7.50;3.30;;;;;;;25.52;35.76;100894.44;1723561;81;20987;-61
2021/08/23 09:44:13;;;;;;;6.00;3.08;;;;;;;25.54;35.95;100891.03;1721443;81;21573;-62
2021/08/23 09:46:41;;;;;;;9.00;3.15;;;;;;;25.64;35.48;100896.81;1655357;85;21660;-62
2021/08/23 09:49:12;;;;;;;13.00;4.53;;;;;;;25.70;34.84;100887.87;1720493;81;21756;-60
2021/08/23 09:51:41;;;;;;;12.63;3.65;;;;;;;25.77;34.77;100896.79;1650453;85;21071;-60
2021/08/23 09:54:18;;;;;;;9.63;3.80;;;;;;;25.88;35.17;100890.44;1690470;81;21120;-59
2021/08/23 09:56:53;;;;;;;5.87;3.15;;;;;;;26.03;35.72;100882.13;1723307;81;21097;-59
2021/08/23 09:59:27;;;;;;;6.03;3.35;;;;;;;26.21;35.96;100882.77;1727887;81;21059;-60
2021/08/23 10:01:56;;;;;;;6.60;3.60;;;;;;;26.35;35.37;100874.92;1626723;85;21298;-60
2021/08/23 10:04:23;;;;;;;7.78;3.37;;;;;;;26.42;36.65;100884.33;1656454;84;21176;-60
2021/08/23 10:06:52;;;;;;;5.55;2.85;;;;;;;26.50;35.94;100882.20;1654491;85;21099;-60
2021/08/23 10:09:26;;;;;;;7.20;3.50;;;;;;;26.53;36.11;100880.96;1721025;81;21577;-60
2021/08/23 10:11:58;;;;;;;5.12;2.85;;;;;;;26.56;35.91;100876.98;1692444;82;21174;-61
2021/08/23 10:14:25;;;;;;;6.17;3.22;;;;;;;26.49;35.85;100876.52;1714375;81;21144;-61
2021/08/23 10:16:51;;;;;;;5.78;3.20;;;;;;;26.44;36.56;100878.19;1719447;82;21624;-60
2021/08/23 10:19:18;;;;;;;8.60;3.27;;;;;;;26.42;36.72;100874.89;1635082;85;21133;-60
2021/08/23 10:21:47;;;;;;;5.35;3.00;;;;;;;26.43;37.16;100873.86;1720651;81;21118;-60
2021/08/23 10:24:18;;;;;;;5.72;2.98;;;;;;;26.44;37.51;100873.62;1720188;81;21074;-61
2021/08/23 10:26:45;;;;;;;5.75;3.27;;;;;;;26.49;37.85;100870.28;1715901;81;21875;-60
2021/08/23 10:29:14;;;;;;;5.75;3.20;;;;;;;26.49;35.94;100868.43;1717964;81;21083;-59
2021/08/23 10:31:42;;;;;;;14.63;4.80;;;;;;;26.47;34.94;100867.80;1655341;85;21516;-61
2021/08/23 10:34:18;;;;;;;9.40;4.28;;;;;;;26.44;35.28;100860.13;1721219;81;21107;-61
2021/08/23 10:36:47;;;;;;;9.00;3.50;;;;;;;26.47;35.85;100853.48;1719906;81;21063;-61
2021/08/23 10:39:21;;;;;;;7.00;3.25;;;;;;;26.52;36.53;100859.05;1723958;81;22321;-61
2021/08/23 10:41:51;;;;;;;5.05;3.25;;;;;;;26.63;37.25;100865.15;1722459;81;21106;-61
2021/08/23 10:44:32;;;;;;;5.35;3.00;;;;;;;26.65;36.79;100863.05;1728775;81;20900;-61
2021/08/23 10:47:09;;;;;;;6.58;3.12;;;;;;;26.68;35.95;100872.60;1701230;82;21003;-61
2021/08/23 10:49:47;;;;;;;6.08;2.95;;;;;;;26.69;36.11;100866.14;1680890;83;21965;-60
2021/08/23 10:52:19;;;;;;;5.90;3.35;;;;;;;26.67;36.68;100864.19;1722694;81;21537;-61
2021/08/23 10:54:49;;;;;;;6.22;3.02;;;;;;;26.68;36.20;100856.41;1719237;81;21126;-61
2021/08/23 10:57:22;;;;;;;6.28;3.35;;;;;;;26.70;36.40;100863.76;1636380;86;21515;-61
2021/08/23 10:59:52;;;;;;;5.40;3.27;;;;;;;26.70;36.44;100866.45;1719992;81;21142;-60
2021/08/23 11:02:37;;;;;;;5.42;3.40;;;;;;;26.71;35.90;100870.80;1693785;81;21491;-60
2021/08/23 11:05:20;;;;;;;5.40;3.08;;;;;;;26.74;35.90;100863.61;1724292;81;21111;-61
2021/08/23 11:07:48;;;;;;;5.87;3.27;;;;;;;26.78;36.26;100859.95;1713956;81;21418;-61
2021/08/23 11:10:18;;;;;;;5.60;3.17;;;;;;;26.82;36.71;100856.60;1722075;81;21446;-61
2021/08/23 11:12:47;;;;;;;8.35;3.62;;;;;;;26.87;37.39;100854.06;1693452;82;21167;-59
2021/08/23 11:15:27;;;;;;;9.50;3.25;;;;;;;26.99;36.05;100851.48;1718403;81;21539;-60
2021/08/23 11:17:56;;;;;;;5.67;3.20;;;;;;;27.04;35.00;100850.30;1716455;81;21866;-59
2021/08/23 11:20:25;;;;;;;7.62;3.22;;;;;;;27.08;36.12;100843.11;1685470;81;21573;-59
2021/08/23 11:23:04;;;;;;;6.17;3.50;;;;;;;27.17;37.06;100844.49;1720714;81;21428;-59
2021/08/23 11:25:33;;;;;;;6.50;3.60;;;;;;;27.22;35.88;100842.77;1718281;81;21079;-60